CYHZ

Halifax / Stanfield International Airport

Halifax, Nova Scotia, Canada
TAF CYHZ 142038Z 1421/1518 26008KT P6SM BKN020 TEMPO 1421/1423 BKN030 FM142300 23008KT P6SM SCT020 BKN240 FM150400 22008KT P6SM BKN010 FM150600 22012KT 6SM BR BKN007 FM150800 22012KT P6SM -RA SCT007 OVC030 FM151000 23012KT 6SM -RA BR OVC007 FM151400 27012G22KT P6SM BKN015 FM151700 29012G22KT P6SM BKN025 RMK NXT FCST BY 150000Z
Issued Valid From Valid To
Dec-14 @ 20:38 UTC
(an hour ago)
Dec-14 @ 21:00 UTC
(39 minutes ago)
Dec-15 @ 18:00 UTC
(in 20 hours)
Dec-14 @ 21:00 to Dec-14 @ 23:00
TAF CYHZ 142038Z 1421/1518 26008KT P6SM BKN020
Wind Visibility Clouds
260° at 8 knots Greater than 6 miles
  • Broken at 2,000' AGL
Temporary Dec-14 @ 21:00 to Dec-14 @ 23:00
TEMPO 1421/1423 BKN030
Clouds
  • Broken at 3,000' AGL
From Dec-14 @ 23:00 to Dec-15 @ 04:00
FM142300 23008KT P6SM SCT020 BKN240
Wind Visibility Clouds
230° at 8 knots Greater than 6 miles
  • Scattered at 2,000' AGL
  • Broken at 24,000' AGL
From Dec-15 @ 04:00 to Dec-15 @ 06:00
FM150400 22008KT P6SM BKN010
Wind Visibility Clouds
220° at 8 knots Greater than 6 miles
  • Broken at 1,000' AGL
From Dec-15 @ 06:00 to Dec-15 @ 08:00
FM150600 22012KT 6SM BR BKN007
Wind Visibility Clouds Conditions
220° at 12 knots 6 miles
  • Broken at 700' AGL
  • Mist
From Dec-15 @ 08:00 to Dec-15 @ 10:00
FM150800 22012KT P6SM -RA SCT007 OVC030
Wind Visibility Clouds Conditions
220° at 12 knots Greater than 6 miles
  • Scattered at 700' AGL
  • Overcast at 3,000' AGL
  • Light Rain
From Dec-15 @ 10:00 to Dec-15 @ 14:00
FM151000 23012KT 6SM -RA BR OVC007
Wind Visibility Clouds Conditions
230° at 12 knots 6 miles
  • Overcast at 700' AGL
  • Light Rain
  • Mist
From Dec-15 @ 14:00 to Dec-15 @ 17:00
FM151400 27012G22KT P6SM BKN015
Wind Visibility Clouds
270° at 12 knots
 Gusting to 22 knots
Greater than 6 miles
  • Broken at 1,500' AGL
From Dec-15 @ 17:00 to Dec-15 @ 18:00
FM151700 29012G22KT P6SM BKN025 RMK NXT FCST BY 150000Z
Wind Visibility Clouds
290° at 12 knots
 Gusting to 22 knots
Greater than 6 miles
  • Broken at 2,500' AGL
TAF CYHZ 142038Z 1421/1518 26008KT P6SM BKN020 TEMPO 1421/1423 BKN030 FM142300 23008KT P6SM SCT020 BKN240 FM150400 22008KT P6SM BKN010 FM150600 22012KT 6SM BR BKN007 FM150800 22012KT P6SM -RA SCT007 OVC030 FM151000 23012KT 6SM -RA BR OVC007 FM151400 27012G22KT P6SM BKN015 FM151700 29012G22KT P6SM BKN025 RMK NXT FCST BY 150000Z
Issued Dec-14 @ 20:38 UTC
(an hour ago)
Valid From Dec-14 @ 21:00 UTC
(39 minutes ago)
Valid To Dec-15 @ 18:00 UTC
(in 20 hours)
Dec-14 @ 21:00 - Dec-14 @ 23:00
Wind Visibility
260° at 8 knots Greater than 6 miles
Clouds
  • Broken at 2,000' AGL
Temporary Dec-14 @ 21:00 - Dec-14 @ 23:00
Clouds
  • Broken at 3,000' AGL
From Dec-14 @ 23:00 - Dec-15 @ 04:00
Wind Visibility
230° at 8 knots Greater than 6 miles
Clouds
  • Scattered at 2,000' AGL
  • Broken at 24,000' AGL
From Dec-15 @ 04:00 - Dec-15 @ 06:00
Wind Visibility
220° at 8 knots Greater than 6 miles
Clouds
  • Broken at 1,000' AGL
From Dec-15 @ 06:00 - Dec-15 @ 08:00
Wind Visibility
220° at 12 knots 6 miles
Clouds
  • Broken at 700' AGL
Conditions
  • Mist
From Dec-15 @ 08:00 - Dec-15 @ 10:00
Wind Visibility
220° at 12 knots Greater than 6 miles
Clouds
  • Scattered at 700' AGL
  • Overcast at 3,000' AGL
Conditions
  • Light Rain
From Dec-15 @ 10:00 - Dec-15 @ 14:00
Wind Visibility
230° at 12 knots 6 miles
Clouds
  • Overcast at 700' AGL
Conditions
  • Light Rain
  • Mist
From Dec-15 @ 14:00 - Dec-15 @ 17:00
Wind Visibility
270° at 12 knots
 Gusting to 22 knots
Greater than 6 miles
Clouds
  • Broken at 1,500' AGL
From Dec-15 @ 17:00 - Dec-15 @ 18:00
Wind Visibility
290° at 12 knots
 Gusting to 22 knots
Greater than 6 miles
Clouds
  • Broken at 2,500' AGL